Time;durP1;ratioP1;P1;durP2;ratioP2;P2;SDS_P1;SDS_P2;PMS_P1;PMS_P2;Temp;Humidity;BMP_temperature;BMP_pressure;BME280_temperature;BME280_humidity;BME280_pressure;Samples;Min_cycle;Max_cycle;Signal;HPM_P1;HPM_P2
2022/03/10 00:01:30;;;;;;;29.77;14.27;;;;;;;-2.61;71.70;101180.59;123628;1099;104316;-79
2022/03/10 00:04:01;;;;;;;28.77;14.00;;;;;;;-2.62;72.36;101186.48;123567;1099;104347;-78
2022/03/10 00:06:32;;;;;;;30.73;14.50;;;;;;;-2.63;71.25;101182.11;123547;1097;104281;-79
2022/03/10 00:09:04;;;;;;;33.70;15.53;;;;;;;-2.64;71.86;101181.97;123659;1099;104339;-80
2022/03/10 00:11:35;;;;;;;31.10;15.10;;;;;;;-2.65;71.86;101191.34;123943;1099;104268;-80
2022/03/10 00:14:07;;;;;;;29.70;14.67;;;;;;;-2.63;72.57;101188.92;123779;1099;104265;-80
2022/03/10 00:16:39;;;;;;;30.47;13.47;;;;;;;-2.65;72.48;101182.70;124007;1097;104322;-79
2022/03/10 00:19:12;;;;;;;30.53;15.37;;;;;;;-2.64;72.45;101189.67;123622;1097;104296;-79
2022/03/10 00:21:43;;;;;;;31.23;14.03;;;;;;;-2.65;71.84;101187.84;124086;1097;104236;-80
2022/03/10 00:24:18;;;;;;;33.10;14.23;;;;;;;-2.64;71.46;101185.42;123848;1099;104341;-80
2022/03/10 00:26:50;;;;;;;30.83;14.93;;;;;;;-2.64;72.59;101188.00;124029;1097;104246;-80
2022/03/10 00:29:58;;;;;;;31.83;14.83;;;;;;;-2.63;71.94;101184.69;123843;1099;104232;-80
2022/03/10 00:32:30;;;;;;;33.20;14.97;;;;;;;-2.63;72.67;101188.92;123774;1099;104268;-80
2022/03/10 00:35:01;;;;;;;31.67;15.17;;;;;;;-2.62;72.50;101189.05;124061;1099;104256;-80
2022/03/10 00:37:34;;;;;;;31.30;14.27;;;;;;;-2.63;71.85;101182.11;123879;1099;104939;-80
2022/03/10 00:40:09;;;;;;;30.10;13.90;;;;;;;-2.61;73.00;101187.41;123803;1099;104258;-79
2022/03/10 00:42:44;;;;;;;30.10;14.03;;;;;;;-2.61;72.08;101187.41;123872;1099;104351;-79
2022/03/10 00:45:17;;;;;;;31.40;14.30;;;;;;;-2.60;73.18;101184.98;123978;1099;104217;-80
2022/03/10 00:47:50;;;;;;;36.98;15.53;;;;;;;-2.58;73.60;101177.43;123950;1099;104329;-80
2022/03/10 00:50:23;;;;;;;;;;;;;;;-2.58;73.60;101180.89;123801;1099;104271;-79
2022/03/10 00:52:55;;;;;;;33.30;13.17;;;;;;;-2.58;74.04;101188.61;123669;1098;104198;-80
2022/03/10 00:55:27;;;;;;;29.67;13.57;;;;;;;-2.59;72.97;101185.88;124070;1099;104155;-80
2022/03/10 00:57:58;;;;;;;31.50;13.77;;;;;;;-2.59;73.81;101191.02;123904;1097;104288;-79
2022/03/10 01:00:30;;;;;;;27.53;13.53;;;;;;;-2.60;72.24;101190.13;124016;1096;104277;-80
2022/03/10 01:03:02;;;;;;;29.87;13.93;;;;;;;-2.60;72.89;101195.27;124038;1097;104256;-80
2022/03/10 01:05:33;;;;;;;29.73;13.90;;;;;;;-2.62;72.43;101193.29;124139;1099;104278;-79
2022/03/10 01:08:05;;;;;;;28.73;12.97;;;;;;;-2.64;73.39;101202.52;124188;1099;104394;-80
2022/03/10 01:10:37;;;;;;;27.87;13.27;;;;;;;-2.66;72.50;101194.66;124032;1099;104331;-80
2022/03/10 01:13:14;;;;;;;30.93;14.00;;;;;;;-2.68;72.58;101198.75;123508;1097;104232;-79
2022/03/10 01:15:46;;;;;;;29.63;13.30;;;;;;;-2.69;73.07;101199.48;123856;1099;104382;-80
2022/03/10 01:18:18;;;;;;;29.20;12.93;;;;;;;-2.69;72.96;101196.03;123976;1099;104258;-79
2022/03/10 01:20:49;;;;;;;27.65;14.15;;;;;;;-2.70;73.28;101197.66;124036;1099;104284;-80
2022/03/10 01:23:21;;;;;;;29.90;13.27;;;;;;;-2.73;73.66;101200.86;123829;1099;104386;-80
2022/03/10 01:25:53;;;;;;;32.07;13.30;;;;;;;-2.74;74.38;101201.60;124030;1099;105466;-80
2022/03/10 01:28:24;;;;;;;31.60;13.67;;;;;;;-2.72;72.60;101205.22;124025;1099;104258;-79
2022/03/10 01:30:56;;;;;;;27.33;13.47;;;;;;;-2.71;72.79;101203.58;124132;1096;104262;-81
2022/03/10 01:33:28;;;;;;;30.33;13.70;;;;;;;-2.72;73.83;101206.89;124022;1096;104307;-79
2022/03/10 01:35:59;;;;;;;32.33;13.03;;;;;;;-2.71;72.67;101216.42;124085;1099;104258;-80
2022/03/10 01:38:30;;;;;;;29.13;12.37;;;;;;;-2.71;73.55;101214.75;124021;1097;104315;-80
2022/03/10 01:41:02;;;;;;;30.87;14.10;;;;;;;-2.69;72.96;101216.58;123977;1099;104786;-80
2022/03/10 01:43:33;;;;;;;25.53;12.03;;;;;;;-2.68;72.97;101215.80;123908;1099;104232;-80
2022/03/10 01:46:05;;;;;;;30.27;13.30;;;;;;;-2.70;73.80;101220.79;123909;1099;104214;-79
2022/03/10 01:48:36;;;;;;;26.87;12.73;;;;;;;-2.71;72.67;101217.32;123935;1099;104313;-80
2022/03/10 01:51:08;;;;;;;28.53;13.77;;;;;;;-2.72;73.89;101220.63;123942;1099;104666;-80
2022/03/10 01:53:39;;;;;;;28.80;13.87;;;;;;;-2.73;72.91;101223.05;123795;1099;104261;-78
2022/03/10 01:56:11;;;;;;;29.17;13.77;;;;;;;-2.74;74.17;101227.29;123896;1099;104184;-79
2022/03/10 01:58:43;;;;;;;29.00;12.87;;;;;;;-2.76;73.19;101231.38;123834;1099;104402;-79
2022/03/10 02:01:15;;;;;;;27.70;13.10;;;;;;;-2.74;73.93;101236.67;123819;1099;104351;-80
2022/03/10 02:03:46;;;;;;;28.37;13.10;;;;;;;-2.76;74.01;101241.66;123589;1099;104377;-78
2022/03/10 02:06:18;;;;;;;29.23;13.13;;;;;;;-2.77;73.98;101242.40;123431;1097;104261;-79
2022/03/10 02:11:39;;;;;;;30.13;12.93;;;;;;;-2.77;73.14;101244.07;124315;1099;104287;-80
2022/03/10 02:19:50;;;;;;;27.90;12.57;;;;;;;-2.75;74.07;101250.26;123911;1099;104269;-80
2022/03/10 02:22:23;;;;;;;25.87;12.00;;;;;;;-2.78;73.69;101253.41;124045;1099;104261;-79
2022/03/10 02:24:55;;;;;;;29.63;13.63;;;;;;;-2.78;73.27;101252.52;123913;1099;104373;-79
2022/03/10 02:27:28;;;;;;;30.90;14.25;;;;;;;-2.79;73.67;101256.77;123954;1097;104270;-80
2022/03/10 02:30:01;;;;;;;29.43;14.07;;;;;;;-2.79;73.49;101254.19;124048;1099;104668;-79
2022/03/10 02:32:32;;;;;;;28.05;13.50;;;;;;;-2.79;73.16;101258.40;123916;1099;104287;-80
2022/03/10 02:35:04;;;;;;;29.80;13.20;;;;;;;-2.80;74.33;101265.20;124103;1099;104611;-80
2022/03/10 02:37:36;;;;;;;29.20;14.13;;;;;;;-2.80;73.50;101260.07;123929;1098;104255;-80
2022/03/10 02:40:10;;;;;;;27.33;13.27;;;;;;;-2.81;73.81;101260.81;123973;1099;104325;-79
2022/03/10 02:42:42;;;;;;;33.18;13.40;;;;;;;-2.81;73.21;101267.63;124020;1098;104262;-80
2022/03/10 02:45:14;;;;;;;30.33;13.17;;;;;;;-2.83;74.62;101269.14;123832;1098;104287;-80
2022/03/10 02:47:45;;;;;;;26.67;11.90;;;;;;;-2.84;74.15;101270.77;123963;1099;104673;-80
2022/03/10 02:50:17;;;;;;;28.83;13.47;;;;;;;-2.85;73.53;101279.26;123983;1099;104342;-79
2022/03/10 02:52:48;;;;;;;33.37;14.40;;;;;;;-2.84;73.30;101275.02;123899;1099;104802;-80
2022/03/10 02:55:19;;;;;;;29.00;13.10;;;;;;;-2.85;74.20;101286.03;123998;1099;104377;-79
2022/03/10 02:57:51;;;;;;;25.97;12.77;;;;;;;-2.85;74.22;101289.53;123969;1099;104254;-80
2022/03/10 03:00:22;;;;;;;29.67;12.97;;;;;;;-2.84;74.17;101286.19;123948;1099;104347;-80
2022/03/10 03:02:54;;;;;;;27.17;12.33;;;;;;;-2.83;73.99;101287.12;123877;1099;104277;-79
2022/03/10 03:05:25;;;;;;;27.03;12.80;;;;;;;-2.82;75.18;101294.05;123953;1097;104207;-80
2022/03/10 03:07:57;;;;;;;28.67;12.73;;;;;;;-2.81;74.77;101291.64;123991;1099;104617;-80
2022/03/10 03:10:29;;;;;;;27.10;11.97;;;;;;;-2.81;73.83;101290.73;124038;1098;104367;-79
2022/03/10 03:13:00;;;;;;;25.17;11.63;;;;;;;-2.80;74.20;101295.14;124048;1099;104631;-79
2022/03/10 03:15:31;;;;;;;26.53;12.50;;;;;;;-2.82;73.90;101289.84;123957;1099;104386;-79
2022/03/10 03:18:03;;;;;;;24.80;11.67;;;;;;;-2.85;73.66;101286.03;123993;1099;104313;-79
2022/03/10 03:20:34;;;;;;;29.83;12.73;;;;;;;-2.86;73.45;101290.27;123937;1097;104284;-79
2022/03/10 03:23:09;;;;;;;24.97;11.60;;;;;;;-2.85;73.68;101292.10;123841;1099;104255;-80
2022/03/10 03:25:40;;;;;;;27.65;11.85;;;;;;;-2.86;73.65;101291.95;123880;1099;104945;-80
2022/03/10 03:28:12;;;;;;;26.77;11.90;;;;;;;-2.89;73.82;101297.66;123947;1099;104376;-79
2022/03/10 03:30:43;;;;;;;27.63;13.13;;;;;;;-2.91;74.09;101294.94;123971;1099;104290;-80
2022/03/10 03:33:15;;;;;;;27.53;13.43;;;;;;;-2.95;73.92;101292.80;124047;1098;104213;-80
2022/03/10 03:35:47;;;;;;;36.87;17.83;;;;;;;-3.01;74.25;101294.74;123987;1099;104233;-80
2022/03/10 03:38:18;;;;;;;37.17;18.07;;;;;;;-3.05;74.39;101305.47;124086;1097;104261;-80
2022/03/10 03:40:50;;;;;;;39.77;19.17;;;;;;;-3.09;73.58;101305.90;124148;1099;104306;-79
2022/03/10 03:43:21;;;;;;;35.70;18.03;;;;;;;-3.14;73.36;101310.56;124391;1099;104232;-80
2022/03/10 03:45:52;;;;;;;34.07;15.87;;;;;;;-3.17;73.41;101306.78;124465;1099;104303;-80
2022/03/10 03:48:25;;;;;;;35.43;16.63;;;;;;;-3.18;74.16;101308.45;124153;1097;104246;-80
2022/03/10 03:50:57;;;;;;;35.00;14.70;;;;;;;-3.19;73.89;101316.89;124055;1099;104207;-80
2022/03/10 03:53:28;;;;;;;32.60;14.93;;;;;;;-3.21;73.92;101310.70;124342;1098;104392;-79
2022/03/10 03:55:59;;;;;;;29.80;13.93;;;;;;;-3.20;73.63;101319.30;124069;1099;104376;-80
2022/03/10 03:58:31;;;;;;;27.53;13.30;;;;;;;-3.23;73.84;101324.11;123912;1099;104339;-80
2022/03/10 04:01:02;;;;;;;28.93;13.43;;;;;;;-3.25;74.07;101331.66;124146;1099;104232;-79
2022/03/10 04:03:33;;;;;;;29.47;12.60;;;;;;;-3.29;74.30;101325.30;124160;1099;104232;-79
2022/03/10 04:06:04;;;;;;;27.67;12.40;;;;;;;-3.32;74.05;101324.98;124104;1099;104258;-80
2022/03/10 04:08:36;;;;;;;28.23;12.43;;;;;;;-3.33;73.75;101322.26;124119;1097;104334;-79
2022/03/10 04:11:07;;;;;;;29.10;12.60;;;;;;;-3.36;73.72;101334.77;123907;1099;104258;-79
2022/03/10 04:13:39;;;;;;;26.90;11.97;;;;;;;-3.37;74.49;101328.70;124030;1099;104255;-79
2022/03/10 04:16:10;;;;;;;28.60;13.25;;;;;;;-3.39;74.17;101335.34;124056;1099;104188;-79
2022/03/10 04:18:41;;;;;;;25.87;12.10;;;;;;;-3.42;74.21;101332.46;123945;1099;104539;-79
2022/03/10 04:21:13;;;;;;;25.20;12.10;;;;;;;-3.44;74.37;101344.23;123933;1099;104268;-79
2022/03/10 04:23:44;;;;;;;27.30;11.97;;;;;;;-3.47;74.57;101339.67;124042;1099;104259;-79
2022/03/10 04:26:15;;;;;;;26.83;11.83;;;;;;;-3.48;74.08;101342.98;123931;1099;104319;-79
2022/03/10 04:28:47;;;;;;;28.30;12.70;;;;;;;-3.51;74.40;101344.33;123875;1099;104248;-79
2022/03/10 04:31:18;;;;;;;28.13;13.07;;;;;;;-3.54;74.24;101349.14;124010;1097;104376;-79
2022/03/10 04:33:49;;;;;;;30.80;12.65;;;;;;;-3.57;73.65;101351.38;123902;1098;104303;-79
2022/03/10 04:36:20;;;;;;;28.80;13.17;;;;;;;-3.59;74.17;101351.22;123934;1096;104213;-80
2022/03/10 04:38:52;;;;;;;27.70;12.40;;;;;;;-3.59;73.50;101355.45;123997;1096;104213;-79
2022/03/10 04:41:23;;;;;;;27.17;12.87;;;;;;;-3.64;73.80;101355.86;123868;1099;104341;-79
2022/03/10 04:43:55;;;;;;;27.07;11.67;;;;;;;-3.64;73.52;101355.86;123900;1099;105162;-79
2022/03/10 04:46:26;;;;;;;28.57;12.03;;;;;;;-3.64;74.17;101362.66;123995;1098;104322;-80
2022/03/10 04:48:58;;;;;;;30.03;13.20;;;;;;;-3.65;73.45;101363.39;124028;1099;104709;-80
2022/03/10 04:51:29;;;;;;;26.60;12.00;;;;;;;-3.64;73.40;101368.69;123988;1099;112363;-80
2022/03/10 04:54:00;;;;;;;26.63;11.73;;;;;;;-3.63;73.75;101369.59;124010;1098;104338;-80
2022/03/10 04:56:32;;;;;;;25.37;10.77;;;;;;;-3.59;73.65;101381.11;124145;1099;104373;-80
2022/03/10 04:59:03;;;;;;;26.93;11.90;;;;;;;-3.57;73.96;101384.73;124095;1099;104299;-80
2022/03/10 05:01:34;;;;;;;27.53;11.87;;;;;;;-3.54;73.92;101387.62;124055;1099;104314;-80
2022/03/10 05:04:06;;;;;;;26.17;12.10;;;;;;;-3.49;74.09;101389.01;124444;1096;104236;-80
2022/03/10 05:06:37;;;;;;;28.30;11.53;;;;;;;-3.50;73.70;101392.34;124199;1099;104259;-80
2022/03/10 05:09:08;;;;;;;29.20;12.20;;;;;;;-3.45;73.93;101403.99;124334;1099;104405;-80
2022/03/10 05:11:40;;;;;;;25.20;11.03;;;;;;;-3.43;73.93;101402.48;124087;1099;104271;-79
2022/03/10 05:14:11;;;;;;;27.17;11.50;;;;;;;-3.40;73.37;101405.38;124070;1099;104338;-80
2022/03/10 05:16:42;;;;;;;28.13;11.97;;;;;;;-3.37;73.31;101410.84;123931;1099;104342;-80
2022/03/10 05:19:14;;;;;;;26.10;11.13;;;;;;;-3.35;73.74;101411.00;123842;1096;104236;-79
2022/03/10 05:21:45;;;;;;;24.17;10.97;;;;;;;-3.34;73.01;101415.39;123855;1099;104261;-79
2022/03/10 05:24:17;;;;;;;24.75;10.40;;;;;;;-3.35;73.52;101414.50;123929;1099;104258;-80
2022/03/10 05:26:48;;;;;;;23.73;10.57;;;;;;;-3.34;73.91;101429.13;123916;1099;104306;-80
2022/03/10 05:29:19;;;;;;;24.53;11.17;;;;;;;-3.27;73.44;101423.00;124079;1098;104239;-80
2022/03/10 05:31:51;;;;;;;25.83;10.93;;;;;;;-3.20;73.87;101432.25;123893;1099;104345;-80
2022/03/10 05:34:22;;;;;;;25.57;11.43;;;;;;;-3.15;73.30;101436.20;124002;1096;104331;-79
2022/03/10 05:36:54;;;;;;;26.03;10.70;;;;;;;-3.10;73.40;101438.52;123743;1097;104826;-79
2022/03/10 05:39:25;;;;;;;26.20;11.43;;;;;;;-3.07;73.43;101445.61;123806;1099;104315;-79
2022/03/10 05:41:57;;;;;;;24.87;11.17;;;;;;;-3.03;72.43;101440.06;123733;1099;104319;-79
2022/03/10 05:44:28;;;;;;;25.50;11.80;;;;;;;-2.99;72.77;101442.21;124040;1099;104613;-80
2022/03/10 05:46:59;;;;;;;26.85;12.30;;;;;;;-2.92;72.80;101449.78;123720;1099;104457;-79
2022/03/10 05:49:31;;;;;;;27.27;11.53;;;;;;;-2.85;72.90;101448.79;123915;1099;104926;-80
2022/03/10 05:52:02;;;;;;;24.07;11.20;;;;;;;-2.77;72.55;101457.30;124481;1099;104336;-80
2022/03/10 05:54:34;;;;;;;29.17;11.93;;;;;;;-2.72;72.36;101456.10;124082;1099;104210;-80
2022/03/10 05:57:05;;;;;;;24.97;11.37;;;;;;;-2.62;72.99;101463.98;124018;1099;104233;-79
2022/03/10 05:59:37;;;;;;;25.43;10.43;;;;;;;-2.59;71.16;101464.31;124153;1099;104194;-80
2022/03/10 06:02:08;;;;;;;26.27;9.90;;;;;;;-2.60;71.07;101472.79;124559;1099;104262;-80
2022/03/10 06:04:39;;;;;;;24.10;10.80;;;;;;;-2.55;72.31;101470.70;124443;1099;104239;-80
2022/03/10 06:07:13;;;;;;;22.82;10.35;;;;;;;-2.46;71.91;101470.72;124042;1098;104822;-80
2022/03/10 06:09:44;;;;;;;24.03;10.27;;;;;;;-2.40;70.87;101477.42;124218;1099;104360;-79
2022/03/10 06:12:22;;;;;;;24.00;9.83;;;;;;;-2.29;71.07;101480.16;124116;1099;104291;-80
2022/03/10 06:14:55;;;;;;;23.80;10.53;;;;;;;-2.19;71.79;101482.94;124911;1099;104373;-79
2022/03/10 06:17:28;;;;;;;23.83;9.57;;;;;;;-2.03;71.94;101482.83;123983;1099;104232;-79
2022/03/10 06:19:59;;;;;;;23.73;9.23;;;;;;;-1.96;68.89;101482.70;123795;1099;104306;-79
2022/03/10 06:22:32;;;;;;;24.83;10.33;;;;;;;-1.93;71.50;101488.16;124010;1098;105605;-79
2022/03/10 06:25:04;;;;;;;26.70;11.60;;;;;;;-1.82;70.67;101481.53;124132;1099;104385;-78
2022/03/10 06:27:36;;;;;;;23.03;10.33;;;;;;;-1.79;69.65;101473.19;123753;1099;104291;-79
2022/03/10 06:30:10;;;;;;;24.67;10.07;;;;;;;-1.63;70.94;101485.17;123888;1099;104939;-81
2022/03/10 06:32:41;;;;;;;23.85;9.53;;;;;;;-1.67;67.48;101485.64;124490;1099;104305;-78
2022/03/10 06:35:13;;;;;;;22.17;9.63;;;;;;;-1.71;69.20;101503.20;123857;1098;104294;-80
2022/03/10 06:37:46;;;;;;;22.00;8.70;;;;;;;-1.87;66.66;101493.92;124060;1099;104217;-80
2022/03/10 06:40:18;;;;;;;21.93;9.17;;;;;;;-1.92;68.27;101499.34;124142;1099;104376;-79
2022/03/10 06:42:49;;;;;;;25.33;9.70;;;;;;;-1.90;67.91;101497.83;123974;1099;104425;-79
2022/03/10 06:45:21;;;;;;;28.33;11.13;;;;;;;-1.89;68.28;101500.56;123532;1099;104379;-78
2022/03/10 06:47:52;;;;;;;25.33;10.57;;;;;;;-1.90;67.42;101510.70;124159;1099;104293;-78
2022/03/10 06:50:28;;;;;;;23.40;10.13;;;;;;;-1.93;68.30;101507.81;124121;1099;102454;-79
2022/03/10 06:52:59;;;;;;;26.20;10.53;;;;;;;-1.88;68.38;101504.96;123859;1099;104242;-80
2022/03/10 06:55:31;;;;;;;17.23;6.63;;;;;;;-1.92;66.91;101505.39;123797;1099;104489;-79
2022/03/10 06:58:02;;;;;;;20.80;8.70;;;;;;;-1.82;68.16;101509.83;123786;1099;104296;-78
2022/03/10 07:00:34;;;;;;;23.27;10.63;;;;;;;-1.70;67.96;101505.92;123805;1099;104334;-80
2022/03/10 07:03:07;;;;;;;25.97;10.20;;;;;;;-1.67;66.35;101515.59;123933;1099;104181;-80
2022/03/10 07:05:43;;;;;;;27.30;11.70;;;;;;;-1.57;67.81;101509.70;123807;1099;104258;-78
2022/03/10 07:08:16;;;;;;;24.50;10.00;;;;;;;-1.56;65.89;101507.27;123961;1099;104236;-77
2022/03/10 07:10:49;;;;;;;22.67;7.90;;;;;;;-1.54;63.48;101515.15;124055;1099;104389;-81
2022/03/10 07:13:22;;;;;;;25.17;7.90;;;;;;;-1.56;63.18;101517.57;123900;1099;104162;-78
2022/03/10 07:15:54;;;;;;;17.47;6.97;;;;;;;-1.68;64.03;101516.38;123831;1099;104344;-81
2022/03/10 07:18:25;;;;;;;20.07;8.53;;;;;;;-1.61;64.24;101518.78;124450;1099;104242;-79
2022/03/10 07:20:59;;;;;;;22.33;8.73;;;;;;;-1.61;63.12;101538.48;124095;1099;104261;-78
2022/03/10 07:23:30;;;;;;;20.47;8.50;;;;;;;-1.62;63.57;101522.14;124119;1099;104261;-78
2022/03/10 07:26:03;;;;;;;23.77;9.13;;;;;;;-1.51;65.31;101516.39;123755;1098;104236;-79
2022/03/10 07:28:39;;;;;;;25.67;8.90;;;;;;;-1.48;63.05;101524.42;124939;1099;104322;-79
2022/03/10 07:31:11;;;;;;;20.63;8.93;;;;;;;-1.49;63.08;101530.31;123983;1099;104226;-81
2022/03/10 07:33:43;;;;;;;21.53;8.63;;;;;;;-1.55;63.43;101534.84;123862;1099;104245;-79
2022/03/10 07:36:15;;;;;;;18.73;7.47;;;;;;;-1.65;61.29;101535.59;123780;1099;104207;-80
2022/03/10 07:38:51;;;;;;;20.10;7.70;;;;;;;-1.61;62.46;101533.33;124063;1096;102390;-80
2022/03/10 07:41:32;;;;;;;17.97;7.03;;;;;;;-1.69;62.65;101536.03;124540;1098;104281;-80
2022/03/10 07:44:29;;;;;;;24.80;9.10;;;;;;;-1.55;64.41;101529.70;123956;1099;105466;-79
2022/03/10 07:47:02;;;;;;;20.77;8.53;;;;;;;-1.57;63.31;101533.80;124763;1099;104287;-79
2022/03/10 07:49:38;;;;;;;22.27;8.90;;;;;;;-1.53;63.56;101538.47;123654;1099;104307;-80
2022/03/10 07:52:11;;;;;;;21.02;8.85;;;;;;;-1.50;63.46;101533.62;123664;1099;104278;-79
2022/03/10 07:54:51;;;;;;;19.70;8.13;;;;;;;-1.50;62.23;101543.03;123871;1097;104358;-80
2022/03/10 07:57:25;;;;;;;15.70;5.60;;;;;;;-1.49;60.69;101547.44;124007;1099;104290;-81
2022/03/10 07:59:57;;;;;;;14.00;5.73;;;;;;;-1.57;60.82;101556.96;124615;1099;104258;-81
2022/03/10 08:02:29;;;;;;;19.27;8.60;;;;;;;-1.48;62.88;101539.87;124282;1099;104727;-81
2022/03/10 08:05:03;;;;;;;20.87;9.17;;;;;;;-1.38;64.10;101540.79;123965;1099;104201;-80
2022/03/10 08:07:43;;;;;;;23.23;9.17;;;;;;;-1.24;63.05;101547.31;124209;1099;104236;-80
2022/03/10 08:10:16;;;;;;;22.63;9.07;;;;;;;-1.25;61.71;101541.23;124209;1099;104242;-81
2022/03/10 08:12:47;;;;;;;21.03;10.17;;;;;;;-1.01;63.05;101546.98;124112;1099;104259;-78
2022/03/10 08:15:20;;;;;;;22.17;8.83;;;;;;;-0.96;63.58;101536.39;123848;1099;104383;-80
2022/03/10 08:18:06;;;;;;;17.30;7.90;;;;;;;-0.94;63.50;101539.12;123764;1099;104313;-79
2022/03/10 08:20:41;;;;;;;18.57;8.20;;;;;;;-0.90;63.17;101541.25;123930;1098;104287;-80
2022/03/10 08:23:12;;;;;;;18.20;7.63;;;;;;;-1.02;62.51;101533.20;123848;1098;104270;-79
2022/03/10 08:25:55;;;;;;;20.05;8.60;;;;;;;-1.06;62.00;101537.91;123911;1098;104268;-82
2022/03/10 08:28:33;;;;;;;25.83;8.93;;;;;;;-0.87;62.30;101531.23;124041;1099;104322;-81
2022/03/10 08:31:13;;;;;;;21.63;8.70;;;;;;;-0.48;62.33;101538.44;124405;1099;104255;-82
2022/03/10 08:33:53;;;;;;;18.37;7.67;;;;;;;-0.50;62.08;101545.09;124655;1099;105755;-79
2022/03/10 08:36:30;;;;;;;20.53;8.37;;;;;;;-0.61;62.23;101535.42;123998;1098;104287;-79
2022/03/10 08:39:04;;;;;;;17.90;7.97;;;;;;;-0.58;62.33;101546.97;123927;1099;104277;-78
2022/03/10 08:41:44;;;;;;;20.03;8.83;;;;;;;-0.52;61.71;101538.00;124057;1099;104306;-79
2022/03/10 08:44:23;;;;;;;19.47;8.00;;;;;;;-0.39;62.07;101534.16;124530;1099;104277;-80
2022/03/10 08:47:13;;;;;;;15.83;6.77;;;;;;;-0.27;60.19;101548.98;123825;1099;104284;-82
2022/03/10 08:49:46;;;;;;;16.27;7.00;;;;;;;-0.10;61.95;101537.70;123788;1099;104286;-78
2022/03/10 08:52:20;;;;;;;13.90;5.57;;;;;;;-0.12;57.90;101534.98;123883;1099;104351;-80
2022/03/10 08:55:05;;;;;;;19.40;7.83;;;;;;;0.03;60.07;101529.44;123989;1098;104265;-79
2022/03/10 08:57:45;;;;;;;14.90;6.70;;;;;;;0.10;59.49;101535.32;124056;1099;104280;-80
2022/03/10 09:00:20;;;;;;;16.60;7.23;;;;;;;0.20;60.04;101537.08;123937;1099;104329;-80
2022/03/10 09:02:53;;;;;;;17.43;6.43;;;;;;;0.20;58.94;101533.61;124016;1099;104277;-80
2022/03/10 09:05:45;;;;;;;20.47;7.77;;;;;;;0.23;59.39;101524.46;124216;1099;104293;-80
2022/03/10 09:08:20;;;;;;;17.07;7.13;;;;;;;0.25;57.38;101527.19;124346;1099;104286;-77
2022/03/10 09:10:54;;;;;;;17.47;7.07;;;;;;;0.12;57.95;101531.20;123700;1099;104383;-80
2022/03/10 09:13:28;;;;;;;14.60;6.33;;;;;;;0.03;57.01;101516.53;123751;1099;104358;-79
2022/03/10 09:16:02;;;;;;;13.33;6.20;;;;;;;-0.02;59.26;101522.19;123391;1099;104297;-80
2022/03/10 09:18:41;;;;;;;14.40;6.63;;;;;;;-0.04;55.91;101520.22;123574;1099;104226;-78
2022/03/10 09:21:18;;;;;;;14.30;6.70;;;;;;;0.04;57.28;101520.94;123891;1099;104322;-79
2022/03/10 09:23:51;;;;;;;18.27;7.20;;;;;;;0.21;57.92;101512.20;124264;1099;104300;-80
2022/03/10 09:26:26;;;;;;;16.90;6.50;;;;;;;0.39;56.69;101512.98;124159;1099;104268;-81
2022/03/10 09:29:02;;;;;;;12.80;5.80;;;;;;;0.35;54.00;101520.44;124171;1099;104168;-81
2022/03/10 09:31:36;;;;;;;13.40;5.23;;;;;;;0.57;51.91;101513.78;125106;1099;104316;-80
2022/03/10 09:34:15;;;;;;;13.70;5.40;;;;;;;0.75;49.70;101515.47;124179;1099;104268;-76
2022/03/10 09:36:50;;;;;;;13.17;5.80;;;;;;;0.69;50.58;101502.89;123734;1099;104268;-78
2022/03/10 09:39:21;;;;;;;18.60;6.73;;;;;;;0.56;52.71;101515.44;123682;1098;104402;-77
2022/03/10 09:42:11;;;;;;;19.20;7.27;;;;;;;0.50;55.53;101508.05;123799;1099;104331;-81
2022/03/10 09:44:53;;;;;;;15.67;6.90;;;;;;;0.36;55.49;101518.80;124293;1099;104181;-81
2022/03/10 09:47:26;;;;;;;14.57;6.80;;;;;;;0.32;55.67;101516.68;124538;1099;112403;-80
2022/03/10 09:50:02;;;;;;;15.37;6.47;;;;;;;0.52;56.54;101513.36;124445;1099;104238;-80
2022/03/10 09:52:34;;;;;;;15.07;5.93;;;;;;;0.78;54.93;101518.33;124014;1099;104376;-80
2022/03/10 09:55:10;;;;;;;15.47;6.13;;;;;;;0.83;52.27;101517.06;123718;1099;104271;-78
2022/03/10 09:57:44;;;;;;;13.80;6.20;;;;;;;0.96;52.55;101511.32;124219;1099;104291;-77
2022/03/10 10:00:18;;;;;;;14.58;6.15;;;;;;;0.95;53.00;101512.11;125239;1099;104713;-80
2022/03/10 10:02:56;;;;;;;;;;;;;;;1.04;51.38;101512.02;124908;1099;104264;-78
2022/03/10 10:05:30;;;;;;;18.00;6.40;;;;;;;1.18;54.79;101510.66;123808;1099;104396;-79
2022/03/10 10:08:11;;;;;;;15.90;6.17;;;;;;;1.34;53.42;101503.52;123953;1099;107902;-79
2022/03/10 10:10:46;;;;;;;17.90;6.30;;;;;;;1.53;53.21;101506.04;124172;1099;104191;-78
2022/03/10 10:13:31;;;;;;;14.07;5.77;;;;;;;1.53;52.47;101503.45;123864;1099;104351;-79
2022/03/10 10:16:05;;;;;;;11.55;5.15;;;;;;;1.29;47.48;101507.34;124213;1099;104338;-79
2022/03/10 10:18:44;;;;;;;14.63;5.40;;;;;;;1.10;51.84;101504.81;124082;1098;104348;-77
2022/03/10 10:21:21;;;;;;;12.20;5.17;;;;;;;0.77;47.52;101506.17;123934;1099;104261;-78
2022/03/10 10:23:53;;;;;;;14.75;5.30;;;;;;;0.48;48.83;101524.16;123742;1099;104214;-76
2022/03/10 10:26:28;;;;;;;13.97;4.97;;;;;;;0.28;48.90;101530.98;123822;1099;104312;-77
2022/03/10 10:29:04;;;;;;;14.00;5.77;;;;;;;0.51;51.71;101511.53;123947;1099;104259;-78
2022/03/10 10:31:42;;;;;;;21.23;8.07;;;;;;;0.60;50.79;101508.90;123995;1099;104729;-80
2022/03/10 10:34:35;;;;;;;16.30;6.53;;;;;;;0.70;50.99;101509.88;124069;1099;104265;-79
2022/03/10 10:37:07;;;;;;;14.10;6.03;;;;;;;0.65;51.63;101511.11;124514;1098;104255;-79
2022/03/10 10:39:56;;;;;;;15.30;5.73;;;;;;;0.55;49.34;101511.06;124400;1097;104220;-80
2022/03/10 10:42:42;;;;;;;15.73;5.60;;;;;;;0.53;49.71;101512.56;124044;1099;104236;-79
2022/03/10 10:45:34;;;;;;;14.50;6.57;;;;;;;0.75;52.28;101501.62;124111;1098;104192;-81
2022/03/10 10:48:08;;;;;;;15.23;5.67;;;;;;;0.99;47.95;101506.43;124892;1099;104271;-78
2022/03/10 10:50:45;;;;;;;12.00;5.07;;;;;;;0.96;43.92;101505.25;123933;1099;104390;-78
2022/03/10 10:53:36;;;;;;;13.97;4.90;;;;;;;0.85;44.09;101505.18;123865;1099;104268;-80
2022/03/10 10:56:11;;;;;;;14.30;4.40;;;;;;;0.63;44.53;101506.59;124296;1099;104162;-79
2022/03/10 10:58:48;;;;;;;14.13;5.47;;;;;;;0.49;46.77;101515.66;125203;1099;104287;-80
2022/03/10 11:01:33;;;;;;;14.37;5.37;;;;;;;0.20;48.85;101521.59;123986;1099;104342;-80
2022/03/10 11:04:07;;;;;;;12.30;5.45;;;;;;;-0.04;50.00;101534.02;123985;1099;104301;-77
2022/03/10 11:06:45;;;;;;;14.30;5.00;;;;;;;-0.26;50.43;101536.23;124169;1098;104265;-81
2022/03/10 11:09:19;;;;;;;13.80;5.17;;;;;;;-0.39;50.74;101518.69;124972;1099;104193;-81
2022/03/10 11:12:08;;;;;;;17.70;6.42;;;;;;;-0.15;50.37;101533.78;125057;1097;104651;-82
2022/03/10 11:14:45;;;;;;;14.30;5.83;;;;;;;0.13;51.44;101516.64;125279;1099;104233;-81
2022/03/10 11:17:19;;;;;;;18.90;6.50;;;;;;;0.55;51.81;101513.64;125445;1099;104198;-81
2022/03/10 11:19:57;;;;;;;15.68;6.00;;;;;;;0.78;48.78;101496.73;124943;1099;104226;-81
2022/03/10 11:22:46;;;;;;;17.63;6.67;;;;;;;0.86;50.45;101519.03;124698;1102;104536;-79
2022/03/10 11:25:34;;;;;;;12.17;5.07;;;;;;;0.45;47.96;101539.38;124043;1099;104232;-79
2022/03/10 11:28:16;;;;;;;16.43;6.80;;;;;;;0.41;49.86;101521.80;124612;1099;104345;-79
2022/03/10 11:30:59;;;;;;;13.80;5.47;;;;;;;0.28;48.21;101519.73;124365;1099;104197;-79
2022/03/10 11:33:35;;;;;;;16.13;6.27;;;;;;;0.30;49.16;101516.53;124500;1099;104699;-79
2022/03/10 11:39:29;;;;;;;13.67;5.50;;;;;;;0.71;46.93;101505.61;124306;1102;104297;-78
2022/03/10 11:42:30;;;;;;;16.23;5.53;;;;;;;0.78;45.88;101522.57;124186;1100;104265;-79